sensor_id;sensor_type;location;lat;lon;timestamp;P1;durP1;ratioP1;P2;durP2;ratioP2
49828;SDS011;35723;51.194;5.112;2023-02-01T00:01:56;32.70;;;8.25;;
49828;SDS011;35723;51.194;5.112;2023-02-01T00:04:22;29.13;;;7.75;;
49828;SDS011;35723;51.194;5.112;2023-02-01T00:06:48;32.05;;;8.00;;
49828;SDS011;35723;51.194;5.112;2023-02-01T00:09:13;33.08;;;9.32;;
49828;SDS011;35723;51.194;5.112;2023-02-01T00:11:39;30.00;;;8.77;;
49828;SDS011;35723;51.194;5.112;2023-02-01T00:14:05;31.98;;;7.85;;
49828;SDS011;35723;51.194;5.112;2023-02-01T00:16:32;31.63;;;8.65;;
49828;SDS011;35723;51.194;5.112;2023-02-01T00:18:59;33.78;;;8.13;;
49828;SDS011;35723;51.194;5.112;2023-02-01T00:21:27;32.88;;;8.35;;
49828;SDS011;35723;51.194;5.112;2023-02-01T00:23:53;30.83;;;7.90;;
49828;SDS011;35723;51.194;5.112;2023-02-01T00:26:19;33.08;;;8.98;;
49828;SDS011;35723;51.194;5.112;2023-02-01T00:28:54;30.00;;;8.38;;
49828;SDS011;35723;51.194;5.112;2023-02-01T00:31:20;29.23;;;7.57;;
49828;SDS011;35723;51.194;5.112;2023-02-01T00:33:46;26.67;;;7.50;;
49828;SDS011;35723;51.194;5.112;2023-02-01T00:36:13;33.13;;;8.23;;
49828;SDS011;35723;51.194;5.112;2023-02-01T00:38:39;31.23;;;8.07;;
49828;SDS011;35723;51.194;5.112;2023-02-01T00:41:15;31.20;;;7.75;;
49828;SDS011;35723;51.194;5.112;2023-02-01T00:43:43;37.22;;;8.65;;
49828;SDS011;35723;51.194;5.112;2023-02-01T00:46:10;34.65;;;8.20;;
49828;SDS011;35723;51.194;5.112;2023-02-01T00:48:37;32.33;;;8.00;;
49828;SDS011;35723;51.194;5.112;2023-02-01T00:51:04;37.03;;;8.50;;
49828;SDS011;35723;51.194;5.112;2023-02-01T00:53:35;33.03;;;7.70;;
49828;SDS011;35723;51.194;5.112;2023-02-01T00:56:01;26.60;;;7.45;;
49828;SDS011;35723;51.194;5.112;2023-02-01T00:58:28;31.63;;;7.63;;
49828;SDS011;35723;51.194;5.112;2023-02-01T01:01:04;30.73;;;7.88;;
49828;SDS011;35723;51.194;5.112;2023-02-01T01:03:36;32.95;;;7.97;;
49828;SDS011;35723;51.194;5.112;2023-02-01T01:06:05;30.63;;;8.02;;
49828;SDS011;35723;51.194;5.112;2023-02-01T01:08:35;30.88;;;7.88;;
49828;SDS011;35723;51.194;5.112;2023-02-01T01:11:09;31.30;;;7.30;;
49828;SDS011;35723;51.194;5.112;2023-02-01T01:13:40;32.38;;;8.27;;
49828;SDS011;35723;51.194;5.112;2023-02-01T01:16:07;32.97;;;8.10;;
49828;SDS011;35723;51.194;5.112;2023-02-01T01:18:34;29.63;;;7.70;;
49828;SDS011;35723;51.194;5.112;2023-02-01T01:21:00;31.30;;;7.88;;
49828;SDS011;35723;51.194;5.112;2023-02-01T01:23:27;26.45;;;7.53;;
49828;SDS011;35723;51.194;5.112;2023-02-01T01:25:53;32.65;;;8.10;;
49828;SDS011;35723;51.194;5.112;2023-02-01T01:28:19;27.67;;;7.82;;
49828;SDS011;35723;51.194;5.112;2023-02-01T01:30:45;35.30;;;8.13;;
49828;SDS011;35723;51.194;5.112;2023-02-01T01:33:11;37.42;;;8.68;;
49828;SDS011;35723;51.194;5.112;2023-02-01T01:35:36;30.98;;;7.82;;
49828;SDS011;35723;51.194;5.112;2023-02-01T01:38:02;24.67;;;7.22;;
49828;SDS011;35723;51.194;5.112;2023-02-01T01:40:28;31.25;;;7.63;;
49828;SDS011;35723;51.194;5.112;2023-02-01T01:42:55;36.60;;;8.15;;
49828;SDS011;35723;51.194;5.112;2023-02-01T01:47:59;33.10;;;8.45;;
49828;SDS011;35723;51.194;5.112;2023-02-01T01:50:36;29.20;;;7.80;;
49828;SDS011;35723;51.194;5.112;2023-02-01T01:53:16;31.38;;;7.47;;
49828;SDS011;35723;51.194;5.112;2023-02-01T01:55:54;36.65;;;8.95;;
49828;SDS011;35723;51.194;5.112;2023-02-01T01:58:23;34.15;;;7.20;;
49828;SDS011;35723;51.194;5.112;2023-02-01T02:00:51;29.85;;;7.47;;
49828;SDS011;35723;51.194;5.112;2023-02-01T02:03:32;35.80;;;7.85;;
49828;SDS011;35723;51.194;5.112;2023-02-01T02:06:03;32.88;;;8.75;;
49828;SDS011;35723;51.194;5.112;2023-02-01T02:08:32;45.45;;;8.00;;
49828;SDS011;35723;51.194;5.112;2023-02-01T02:10:58;29.25;;;6.90;;
49828;SDS011;35723;51.194;5.112;2023-02-01T02:16:03;30.13;;;6.80;;
49828;SDS011;35723;51.194;5.112;2023-02-01T02:27:57;36.15;;;7.45;;
49828;SDS011;35723;51.194;5.112;2023-02-01T02:30:55;30.17;;;6.93;;
49828;SDS011;35723;51.194;5.112;2023-02-01T02:33:55;32.33;;;6.88;;
49828;SDS011;35723;51.194;5.112;2023-02-01T02:41:31;30.90;;;6.78;;
49828;SDS011;35723;51.194;5.112;2023-02-01T02:47:42;29.35;;;7.05;;
49828;SDS011;35723;51.194;5.112;2023-02-01T02:50:27;32.35;;;6.40;;
49828;SDS011;35723;51.194;5.112;2023-02-01T02:53:37;33.70;;;6.82;;
49828;SDS011;35723;51.194;5.112;2023-02-01T02:56:29;33.58;;;6.60;;
49828;SDS011;35723;51.194;5.112;2023-02-01T02:59:16;31.00;;;7.55;;
49828;SDS011;35723;51.194;5.112;2023-02-01T03:02:03;31.15;;;6.60;;
49828;SDS011;35723;51.194;5.112;2023-02-01T03:04:52;31.27;;;6.68;;
49828;SDS011;35723;51.194;5.112;2023-02-01T03:10:10;34.38;;;6.57;;
49828;SDS011;35723;51.194;5.112;2023-02-01T03:12:51;31.65;;;6.40;;
49828;SDS011;35723;51.194;5.112;2023-02-01T03:15:28;30.40;;;5.97;;
49828;SDS011;35723;51.194;5.112;2023-02-01T03:18:01;27.45;;;5.40;;
49828;SDS011;35723;51.194;5.112;2023-02-01T03:20:32;32.35;;;5.60;;
49828;SDS011;35723;51.194;5.112;2023-02-01T03:22:58;32.83;;;5.85;;
49828;SDS011;35723;51.194;5.112;2023-02-01T03:25:26;30.67;;;5.90;;
49828;SDS011;35723;51.194;5.112;2023-02-01T03:28:03;35.03;;;5.88;;
49828;SDS011;35723;51.194;5.112;2023-02-01T03:30:37;35.00;;;6.05;;
49828;SDS011;35723;51.194;5.112;2023-02-01T03:33:08;29.95;;;6.15;;
49828;SDS011;35723;51.194;5.112;2023-02-01T03:35:58;34.47;;;5.90;;
49828;SDS011;35723;51.194;5.112;2023-02-01T03:41:45;31.27;;;5.75;;
49828;SDS011;35723;51.194;5.112;2023-02-01T03:44:16;26.95;;;5.65;;
49828;SDS011;35723;51.194;5.112;2023-02-01T03:47:20;29.63;;;5.35;;
49828;SDS011;35723;51.194;5.112;2023-02-01T03:49:55;32.17;;;6.03;;
49828;SDS011;35723;51.194;5.112;2023-02-01T03:52:28;28.17;;;5.63;;
49828;SDS011;35723;51.194;5.112;2023-02-01T03:55:12;27.33;;;4.95;;
49828;SDS011;35723;51.194;5.112;2023-02-01T03:57:43;25.15;;;5.32;;
49828;SDS011;35723;51.194;5.112;2023-02-01T04:00:18;32.40;;;5.13;;
49828;SDS011;35723;51.194;5.112;2023-02-01T04:02:47;32.08;;;5.80;;
49828;SDS011;35723;51.194;5.112;2023-02-01T04:05:13;36.33;;;5.97;;
49828;SDS011;35723;51.194;5.112;2023-02-01T04:07:39;36.47;;;5.07;;
49828;SDS011;35723;51.194;5.112;2023-02-01T04:10:05;31.95;;;5.25;;
49828;SDS011;35723;51.194;5.112;2023-02-01T04:12:31;24.40;;;4.50;;
49828;SDS011;35723;51.194;5.112;2023-02-01T04:14:57;28.98;;;5.03;;
49828;SDS011;35723;51.194;5.112;2023-02-01T04:17:23;29.65;;;5.10;;
49828;SDS011;35723;51.194;5.112;2023-02-01T04:19:48;31.63;;;4.88;;
49828;SDS011;35723;51.194;5.112;2023-02-01T04:22:14;33.67;;;4.80;;
49828;SDS011;35723;51.194;5.112;2023-02-01T04:24:40;30.40;;;4.97;;
49828;SDS011;35723;51.194;5.112;2023-02-01T04:27:05;28.38;;;4.50;;
49828;SDS011;35723;51.194;5.112;2023-02-01T04:29:31;28.73;;;5.18;;
49828;SDS011;35723;51.194;5.112;2023-02-01T04:31:57;31.35;;;4.95;;
49828;SDS011;35723;51.194;5.112;2023-02-01T04:34:22;26.40;;;4.38;;
49828;SDS011;35723;51.194;5.112;2023-02-01T04:36:49;33.03;;;5.40;;
49828;SDS011;35723;51.194;5.112;2023-02-01T04:39:15;34.30;;;4.88;;
49828;SDS011;35723;51.194;5.112;2023-02-01T04:41:41;31.33;;;4.88;;
49828;SDS011;35723;51.194;5.112;2023-02-01T04:44:08;26.73;;;4.88;;
49828;SDS011;35723;51.194;5.112;2023-02-01T04:46:39;33.95;;;5.20;;
49828;SDS011;35723;51.194;5.112;2023-02-01T04:49:05;33.13;;;4.97;;
49828;SDS011;35723;51.194;5.112;2023-02-01T04:51:30;27.42;;;5.00;;
49828;SDS011;35723;51.194;5.112;2023-02-01T04:53:57;30.63;;;4.82;;
49828;SDS011;35723;51.194;5.112;2023-02-01T04:56:23;33.83;;;5.03;;
49828;SDS011;35723;51.194;5.112;2023-02-01T04:58:48;29.45;;;4.70;;
49828;SDS011;35723;51.194;5.112;2023-02-01T05:01:14;38.25;;;5.20;;
49828;SDS011;35723;51.194;5.112;2023-02-01T05:03:39;34.47;;;5.47;;
49828;SDS011;35723;51.194;5.112;2023-02-01T05:06:05;31.45;;;5.30;;
49828;SDS011;35723;51.194;5.112;2023-02-01T05:08:31;32.70;;;5.40;;
49828;SDS011;35723;51.194;5.112;2023-02-01T05:10:57;27.08;;;4.93;;
49828;SDS011;35723;51.194;5.112;2023-02-01T05:13:24;33.50;;;4.70;;
49828;SDS011;35723;51.194;5.112;2023-02-01T05:16:08;34.53;;;5.22;;
49828;SDS011;35723;51.194;5.112;2023-02-01T05:18:34;32.58;;;5.03;;
49828;SDS011;35723;51.194;5.112;2023-02-01T05:21:00;32.63;;;5.30;;
49828;SDS011;35723;51.194;5.112;2023-02-01T05:23:26;31.33;;;5.18;;
49828;SDS011;35723;51.194;5.112;2023-02-01T05:25:52;31.13;;;4.88;;
49828;SDS011;35723;51.194;5.112;2023-02-01T05:28:22;27.80;;;4.97;;
49828;SDS011;35723;51.194;5.112;2023-02-01T05:30:48;34.72;;;5.43;;
49828;SDS011;35723;51.194;5.112;2023-02-01T05:33:14;28.80;;;4.78;;
49828;SDS011;35723;51.194;5.112;2023-02-01T05:35:39;22.90;;;4.57;;
49828;SDS011;35723;51.194;5.112;2023-02-01T05:38:05;30.17;;;5.25;;
49828;SDS011;35723;51.194;5.112;2023-02-01T05:40:30;33.78;;;5.25;;
49828;SDS011;35723;51.194;5.112;2023-02-01T05:42:56;27.13;;;4.65;;
49828;SDS011;35723;51.194;5.112;2023-02-01T05:45:22;33.50;;;6.05;;
49828;SDS011;35723;51.194;5.112;2023-02-01T05:47:47;30.13;;;5.28;;
49828;SDS011;35723;51.194;5.112;2023-02-01T05:50:13;32.92;;;5.05;;
49828;SDS011;35723;51.194;5.112;2023-02-01T05:52:39;28.88;;;5.43;;
49828;SDS011;35723;51.194;5.112;2023-02-01T05:55:04;42.65;;;5.55;;
49828;SDS011;35723;51.194;5.112;2023-02-01T05:57:30;31.13;;;5.07;;
49828;SDS011;35723;51.194;5.112;2023-02-01T05:59:56;35.95;;;5.65;;
49828;SDS011;35723;51.194;5.112;2023-02-01T06:02:21;29.30;;;5.13;;
49828;SDS011;35723;51.194;5.112;2023-02-01T06:04:50;31.70;;;4.95;;
49828;SDS011;35723;51.194;5.112;2023-02-01T06:07:16;35.53;;;5.80;;
49828;SDS011;35723;51.194;5.112;2023-02-01T06:09:44;35.58;;;5.50;;
49828;SDS011;35723;51.194;5.112;2023-02-01T06:12:10;27.58;;;4.95;;
49828;SDS011;35723;51.194;5.112;2023-02-01T06:14:36;25.80;;;5.18;;
49828;SDS011;35723;51.194;5.112;2023-02-01T06:17:05;31.73;;;4.90;;
49828;SDS011;35723;51.194;5.112;2023-02-01T06:19:31;33.50;;;4.97;;
49828;SDS011;35723;51.194;5.112;2023-02-01T06:21:57;33.35;;;5.40;;
49828;SDS011;35723;51.194;5.112;2023-02-01T06:24:22;28.73;;;4.47;;
49828;SDS011;35723;51.194;5.112;2023-02-01T06:26:48;29.15;;;5.43;;
49828;SDS011;35723;51.194;5.112;2023-02-01T06:29:13;37.95;;;5.32;;
49828;SDS011;35723;51.194;5.112;2023-02-01T06:31:39;37.92;;;5.55;;
49828;SDS011;35723;51.194;5.112;2023-02-01T06:34:05;33.85;;;5.40;;
49828;SDS011;35723;51.194;5.112;2023-02-01T06:36:31;30.05;;;5.20;;
49828;SDS011;35723;51.194;5.112;2023-02-01T06:38:57;32.80;;;5.25;;
49828;SDS011;35723;51.194;5.112;2023-02-01T06:41:24;30.63;;;4.90;;
49828;SDS011;35723;51.194;5.112;2023-02-01T06:43:50;35.95;;;5.57;;
49828;SDS011;35723;51.194;5.112;2023-02-01T06:46:16;35.67;;;5.68;;
49828;SDS011;35723;51.194;5.112;2023-02-01T06:48:42;25.83;;;4.90;;
49828;SDS011;35723;51.194;5.112;2023-02-01T06:51:22;32.20;;;5.47;;
49828;SDS011;35723;51.194;5.112;2023-02-01T06:53:49;36.70;;;5.45;;
49828;SDS011;35723;51.194;5.112;2023-02-01T06:56:15;31.52;;;5.70;;
49828;SDS011;35723;51.194;5.112;2023-02-01T06:58:41;29.65;;;5.32;;
49828;SDS011;35723;51.194;5.112;2023-02-01T07:01:07;30.13;;;6.03;;
49828;SDS011;35723;51.194;5.112;2023-02-01T07:03:34;34.90;;;5.63;;
49828;SDS011;35723;51.194;5.112;2023-02-01T07:05:59;32.72;;;5.10;;
49828;SDS011;35723;51.194;5.112;2023-02-01T07:08:28;28.55;;;5.40;;
49828;SDS011;35723;51.194;5.112;2023-02-01T07:11:05;27.30;;;5.43;;
49828;SDS011;35723;51.194;5.112;2023-02-01T07:13:32;31.42;;;5.25;;
49828;SDS011;35723;51.194;5.112;2023-02-01T07:15:59;30.02;;;4.68;;
49828;SDS011;35723;51.194;5.112;2023-02-01T07:18:26;30.98;;;5.15;;
49828;SDS011;35723;51.194;5.112;2023-02-01T07:20:53;31.95;;;5.28;;
49828;SDS011;35723;51.194;5.112;2023-02-01T07:23:19;34.65;;;5.10;;
49828;SDS011;35723;51.194;5.112;2023-02-01T07:25:45;28.48;;;4.90;;
49828;SDS011;35723;51.194;5.112;2023-02-01T07:28:11;28.20;;;5.28;;
49828;SDS011;35723;51.194;5.112;2023-02-01T07:30:36;29.85;;;5.40;;
49828;SDS011;35723;51.194;5.112;2023-02-01T07:33:02;30.63;;;4.93;;
49828;SDS011;35723;51.194;5.112;2023-02-01T07:35:28;34.55;;;5.88;;
49828;SDS011;35723;51.194;5.112;2023-02-01T07:37:54;34.17;;;5.30;;
49828;SDS011;35723;51.194;5.112;2023-02-01T07:40:19;32.50;;;5.32;;
49828;SDS011;35723;51.194;5.112;2023-02-01T07:42:50;34.92;;;5.68;;
49828;SDS011;35723;51.194;5.112;2023-02-01T07:48:01;29.60;;;6.20;;
49828;SDS011;35723;51.194;5.112;2023-02-01T07:50:28;28.20;;;5.30;;
49828;SDS011;35723;51.194;5.112;2023-02-01T07:52:54;30.55;;;5.40;;
49828;SDS011;35723;51.194;5.112;2023-02-01T07:55:19;31.33;;;5.18;;
49828;SDS011;35723;51.194;5.112;2023-02-01T07:57:46;33.50;;;5.80;;
49828;SDS011;35723;51.194;5.112;2023-02-01T08:00:12;36.47;;;5.25;;
49828;SDS011;35723;51.194;5.112;2023-02-01T08:02:57;29.05;;;5.82;;
49828;SDS011;35723;51.194;5.112;2023-02-01T08:05:24;35.78;;;6.13;;
49828;SDS011;35723;51.194;5.112;2023-02-01T08:07:50;32.13;;;5.80;;
49828;SDS011;35723;51.194;5.112;2023-02-01T08:10:16;39.63;;;6.15;;
49828;SDS011;35723;51.194;5.112;2023-02-01T08:12:42;33.40;;;5.70;;
49828;SDS011;35723;51.194;5.112;2023-02-01T08:15:08;30.70;;;5.90;;
49828;SDS011;35723;51.194;5.112;2023-02-01T08:17:33;31.63;;;5.80;;
49828;SDS011;35723;51.194;5.112;2023-02-01T08:19:59;33.47;;;5.30;;
49828;SDS011;35723;51.194;5.112;2023-02-01T08:22:25;31.83;;;5.55;;
49828;SDS011;35723;51.194;5.112;2023-02-01T08:24:50;35.83;;;5.78;;
49828;SDS011;35723;51.194;5.112;2023-02-01T08:27:16;32.33;;;5.65;;
49828;SDS011;35723;51.194;5.112;2023-02-01T08:29:42;32.47;;;5.20;;
49828;SDS011;35723;51.194;5.112;2023-02-01T08:32:08;30.65;;;5.68;;
49828;SDS011;35723;51.194;5.112;2023-02-01T08:34:33;36.08;;;5.30;;
49828;SDS011;35723;51.194;5.112;2023-02-01T08:36:59;34.90;;;6.00;;
49828;SDS011;35723;51.194;5.112;2023-02-01T08:39:25;36.38;;;6.57;;
49828;SDS011;35723;51.194;5.112;2023-02-01T08:41:51;36.20;;;5.55;;
49828;SDS011;35723;51.194;5.112;2023-02-01T08:44:35;29.92;;;5.80;;
49828;SDS011;35723;51.194;5.112;2023-02-01T08:47:02;30.90;;;5.38;;
49828;SDS011;35723;51.194;5.112;2023-02-01T08:49:28;32.55;;;6.05;;
49828;SDS011;35723;51.194;5.112;2023-02-01T08:51:54;26.33;;;5.40;;
49828;SDS011;35723;51.194;5.112;2023-02-01T08:54:20;34.53;;;6.22;;
49828;SDS011;35723;51.194;5.112;2023-02-01T08:56:46;33.75;;;5.90;;
49828;SDS011;35723;51.194;5.112;2023-02-01T08:59:12;36.20;;;5.80;;
49828;SDS011;35723;51.194;5.112;2023-02-01T09:01:37;33.17;;;5.63;;
49828;SDS011;35723;51.194;5.112;2023-02-01T09:04:03;38.47;;;5.80;;
49828;SDS011;35723;51.194;5.112;2023-02-01T09:06:29;36.55;;;6.25;;
49828;SDS011;35723;51.194;5.112;2023-02-01T09:08:55;31.58;;;5.55;;
49828;SDS011;35723;51.194;5.112;2023-02-01T09:11:21;28.95;;;5.38;;
49828;SDS011;35723;51.194;5.112;2023-02-01T09:13:47;30.75;;;5.68;;
49828;SDS011;35723;51.194;5.112;2023-02-01T09:16:13;29.77;;;5.70;;
49828;SDS011;35723;51.194;5.112;2023-02-01T09:18:39;34.13;;;5.53;;
49828;SDS011;35723;51.194;5.112;2023-02-01T09:21:08;34.28;;;5.85;;
49828;SDS011;35723;51.194;5.112;2023-02-01T09:23:34;27.35;;;6.00;;
49828;SDS011;35723;51.194;5.112;2023-02-01T09:26:00;36.25;;;5.53;;
49828;SDS011;35723;51.194;5.112;2023-02-01T09:28:27;29.02;;;5.55;;
49828;SDS011;35723;51.194;5.112;2023-02-01T09:30:56;31.67;;;5.68;;
49828;SDS011;35723;51.194;5.112;2023-02-01T09:33:22;35.78;;;5.65;;
49828;SDS011;35723;51.194;5.112;2023-02-01T09:35:49;33.83;;;5.65;;
49828;SDS011;35723;51.194;5.112;2023-02-01T09:38:19;27.58;;;6.18;;
49828;SDS011;35723;51.194;5.112;2023-02-01T09:40:46;35.85;;;6.43;;
49828;SDS011;35723;51.194;5.112;2023-02-01T09:43:18;31.92;;;6.53;;
49828;SDS011;35723;51.194;5.112;2023-02-01T09:48:44;31.65;;;5.55;;
49828;SDS011;35723;51.194;5.112;2023-02-01T09:51:16;36.08;;;5.68;;
49828;SDS011;35723;51.194;5.112;2023-02-01T09:56:34;25.17;;;5.22;;
49828;SDS011;35723;51.194;5.112;2023-02-01T09:59:27;27.35;;;5.22;;
49828;SDS011;35723;51.194;5.112;2023-02-01T10:02:17;35.45;;;6.15;;
49828;SDS011;35723;51.194;5.112;2023-02-01T10:04:47;31.27;;;5.53;;
49828;SDS011;35723;51.194;5.112;2023-02-01T10:23:52;35.67;;;5.47;;
49828;SDS011;35723;51.194;5.112;2023-02-01T10:26:24;29.38;;;5.13;;
49828;SDS011;35723;51.194;5.112;2023-02-01T10:28:53;32.28;;;5.88;;
49828;SDS011;35723;51.194;5.112;2023-02-01T10:31:24;32.70;;;5.78;;
49828;SDS011;35723;51.194;5.112;2023-02-01T10:34:00;31.08;;;5.45;;
49828;SDS011;35723;51.194;5.112;2023-02-01T10:36:42;27.10;;;5.13;;
49828;SDS011;35723;51.194;5.112;2023-02-01T10:39:17;35.10;;;5.32;;
49828;SDS011;35723;51.194;5.112;2023-02-01T10:41:44;29.45;;;5.20;;
49828;SDS011;35723;51.194;5.112;2023-02-01T10:44:14;30.95;;;5.25;;
49828;SDS011;35723;51.194;5.112;2023-02-01T10:46:43;25.25;;;4.47;;
49828;SDS011;35723;51.194;5.112;2023-02-01T10:49:13;26.17;;;5.00;;
49828;SDS011;35723;51.194;5.112;2023-02-01T10:54:33;27.77;;;5.22;;
49828;SDS011;35723;51.194;5.112;2023-02-01T10:57:03;33.10;;;6.45;;
49828;SDS011;35723;51.194;5.112;2023-02-01T10:59:33;30.17;;;5.20;;
49828;SDS011;35723;51.194;5.112;2023-02-01T11:02:02;28.10;;;4.65;;
49828;SDS011;35723;51.194;5.112;2023-02-01T11:04:40;27.83;;;4.53;;
49828;SDS011;35723;51.194;5.112;2023-02-01T11:09:39;27.35;;;4.63;;
49828;SDS011;35723;51.194;5.112;2023-02-01T11:12:20;27.60;;;4.90;;
49828;SDS011;35723;51.194;5.112;2023-02-01T11:14:47;29.13;;;4.57;;
49828;SDS011;35723;51.194;5.112;2023-02-01T11:17:26;29.75;;;5.03;;
49828;SDS011;35723;51.194;5.112;2023-02-01T11:20:01;32.92;;;4.90;;
49828;SDS011;35723;51.194;5.112;2023-02-01T11:22:30;34.22;;;4.22;;
49828;SDS011;35723;51.194;5.112;2023-02-01T11:24:56;27.00;;;4.10;;
49828;SDS011;35723;51.194;5.112;2023-02-01T11:27:35;24.65;;;4.20;;
49828;SDS011;35723;51.194;5.112;2023-02-01T11:30:00;26.75;;;4.13;;
49828;SDS011;35723;51.194;5.112;2023-02-01T11:32:29;28.60;;;4.45;;
49828;SDS011;35723;51.194;5.112;2023-02-01T11:34:57;28.55;;;4.38;;
49828;SDS011;35723;51.194;5.112;2023-02-01T11:37:29;25.30;;;3.83;;
49828;SDS011;35723;51.194;5.112;2023-02-01T11:39:59;22.63;;;4.20;;
49828;SDS011;35723;51.194;5.112;2023-02-01T11:42:53;24.17;;;4.32;;
49828;SDS011;35723;51.194;5.112;2023-02-01T11:45:31;22.58;;;3.80;;
49828;SDS011;35723;51.194;5.112;2023-02-01T11:48:06;25.27;;;4.32;;
49828;SDS011;35723;51.194;5.112;2023-02-01T11:50:43;24.70;;;3.70;;
49828;SDS011;35723;51.194;5.112;2023-02-01T11:53:22;15.88;;;2.80;;
49828;SDS011;35723;51.194;5.112;2023-02-01T11:56:27;18.98;;;3.00;;
49828;SDS011;35723;51.194;5.112;2023-02-01T12:01:46;20.95;;;3.08;;
49828;SDS011;35723;51.194;5.112;2023-02-01T12:05:04;23.63;;;3.00;;
49828;SDS011;35723;51.194;5.112;2023-02-01T12:18:37;18.38;;;3.00;;
49828;SDS011;35723;51.194;5.112;2023-02-01T12:30:10;20.75;;;3.17;;
49828;SDS011;35723;51.194;5.112;2023-02-01T12:46:23;20.73;;;3.03;;
49828;SDS011;35723;51.194;5.112;2023-02-01T12:51:36;20.33;;;3.00;;
49828;SDS011;35723;51.194;5.112;2023-02-01T12:54:12;20.05;;;2.80;;
49828;SDS011;35723;51.194;5.112;2023-02-01T12:56:48;19.25;;;3.13;;
49828;SDS011;35723;51.194;5.112;2023-02-01T13:02:15;20.60;;;2.75;;
49828;SDS011;35723;51.194;5.112;2023-02-01T13:07:46;19.80;;;2.80;;
49828;SDS011;35723;51.194;5.112;2023-02-01T13:10:31;19.30;;;3.45;;
49828;SDS011;35723;51.194;5.112;2023-02-01T13:13:11;20.23;;;3.20;;
49828;SDS011;35723;51.194;5.112;2023-02-01T13:18:56;24.05;;;3.58;;
49828;SDS011;35723;51.194;5.112;2023-02-01T13:21:51;28.27;;;3.47;;
49828;SDS011;35723;51.194;5.112;2023-02-01T13:27:11;19.52;;;2.97;;
49828;SDS011;35723;51.194;5.112;2023-02-01T13:29:38;18.05;;;3.20;;
49828;SDS011;35723;51.194;5.112;2023-02-01T13:37:57;15.77;;;2.92;;
49828;SDS011;35723;51.194;5.112;2023-02-01T13:40:36;21.73;;;3.40;;
49828;SDS011;35723;51.194;5.112;2023-02-01T13:43:27;20.00;;;3.03;;
49828;SDS011;35723;51.194;5.112;2023-02-01T13:45:56;22.98;;;3.10;;
49828;SDS011;35723;51.194;5.112;2023-02-01T13:48:37;23.27;;;3.53;;
49828;SDS011;35723;51.194;5.112;2023-02-01T13:51:13;21.10;;;3.20;;
49828;SDS011;35723;51.194;5.112;2023-02-01T13:53:44;30.20;;;4.28;;
49828;SDS011;35723;51.194;5.112;2023-02-01T13:56:13;18.73;;;3.08;;
49828;SDS011;35723;51.194;5.112;2023-02-01T13:58:43;27.40;;;3.67;;
49828;SDS011;35723;51.194;5.112;2023-02-01T14:01:31;17.77;;;2.90;;
49828;SDS011;35723;51.194;5.112;2023-02-01T14:14:45;26.80;;;4.13;;
49828;SDS011;35723;51.194;5.112;2023-02-01T14:19:20;22.60;;;3.38;;
49828;SDS011;35723;51.194;5.112;2023-02-01T14:21:57;28.00;;;4.03;;
49828;SDS011;35723;51.194;5.112;2023-02-01T14:24:52;25.50;;;4.35;;
49828;SDS011;35723;51.194;5.112;2023-02-01T14:27:26;23.50;;;3.92;;
49828;SDS011;35723;51.194;5.112;2023-02-01T14:30:02;27.70;;;4.07;;
49828;SDS011;35723;51.194;5.112;2023-02-01T14:35:07;23.67;;;3.65;;
49828;SDS011;35723;51.194;5.112;2023-02-01T14:37:42;23.45;;;4.18;;
49828;SDS011;35723;51.194;5.112;2023-02-01T14:47:51;25.60;;;3.78;;
49828;SDS011;35723;51.194;5.112;2023-02-01T15:06:39;22.10;;;3.72;;
49828;SDS011;35723;51.194;5.112;2023-02-01T15:11:54;24.23;;;3.25;;
49828;SDS011;35723;51.194;5.112;2023-02-01T15:14:22;26.25;;;4.05;;
49828;SDS011;35723;51.194;5.112;2023-02-01T15:16:48;24.17;;;4.10;;
49828;SDS011;35723;51.194;5.112;2023-02-01T15:19:21;21.92;;;4.13;;
49828;SDS011;35723;51.194;5.112;2023-02-01T15:21:49;24.88;;;3.97;;
49828;SDS011;35723;51.194;5.112;2023-02-01T15:26:51;22.17;;;3.78;;
49828;SDS011;35723;51.194;5.112;2023-02-01T15:29:18;27.13;;;4.13;;
49828;SDS011;35723;51.194;5.112;2023-02-01T15:31:46;22.13;;;4.07;;
49828;SDS011;35723;51.194;5.112;2023-02-01T15:34:14;24.20;;;4.22;;
49828;SDS011;35723;51.194;5.112;2023-02-01T15:36:41;22.25;;;3.83;;
49828;SDS011;35723;51.194;5.112;2023-02-01T15:39:18;21.92;;;3.65;;
49828;SDS011;35723;51.194;5.112;2023-02-01T15:41:57;24.25;;;4.28;;
49828;SDS011;35723;51.194;5.112;2023-02-01T15:44:31;22.23;;;3.47;;
49828;SDS011;35723;51.194;5.112;2023-02-01T15:47:12;21.85;;;4.10;;
49828;SDS011;35723;51.194;5.112;2023-02-01T15:49:44;24.10;;;4.05;;
49828;SDS011;35723;51.194;5.112;2023-02-01T15:54:54;23.13;;;3.80;;
49828;SDS011;35723;51.194;5.112;2023-02-01T15:57:26;21.27;;;3.85;;
49828;SDS011;35723;51.194;5.112;2023-02-01T15:59:56;26.65;;;3.65;;
49828;SDS011;35723;51.194;5.112;2023-02-01T16:02:26;23.48;;;3.58;;
49828;SDS011;35723;51.194;5.112;2023-02-01T16:04:53;25.42;;;3.75;;
49828;SDS011;35723;51.194;5.112;2023-02-01T16:07:25;26.15;;;4.18;;
49828;SDS011;35723;51.194;5.112;2023-02-01T16:09:57;24.88;;;3.97;;
49828;SDS011;35723;51.194;5.112;2023-02-01T16:15:03;26.42;;;4.30;;
49828;SDS011;35723;51.194;5.112;2023-02-01T16:17:29;21.13;;;3.58;;
49828;SDS011;35723;51.194;5.112;2023-02-01T16:19:55;23.98;;;3.90;;
49828;SDS011;35723;51.194;5.112;2023-02-01T16:22:22;25.17;;;4.50;;
49828;SDS011;35723;51.194;5.112;2023-02-01T16:24:48;26.67;;;3.95;;
49828;SDS011;35723;51.194;5.112;2023-02-01T16:27:14;24.95;;;4.25;;
49828;SDS011;35723;51.194;5.112;2023-02-01T16:29:39;28.70;;;4.68;;
49828;SDS011;35723;51.194;5.112;2023-02-01T16:32:05;27.88;;;4.40;;
49828;SDS011;35723;51.194;5.112;2023-02-01T16:34:31;27.70;;;4.97;;
49828;SDS011;35723;51.194;5.112;2023-02-01T16:36:57;24.38;;;3.80;;
49828;SDS011;35723;51.194;5.112;2023-02-01T16:39:23;25.63;;;4.32;;
49828;SDS011;35723;51.194;5.112;2023-02-01T16:41:49;29.75;;;4.32;;
49828;SDS011;35723;51.194;5.112;2023-02-01T16:44:15;25.00;;;4.03;;
49828;SDS011;35723;51.194;5.112;2023-02-01T16:46:42;28.65;;;6.10;;
49828;SDS011;35723;51.194;5.112;2023-02-01T16:49:20;27.00;;;4.50;;
49828;SDS011;35723;51.194;5.112;2023-02-01T16:51:50;29.10;;;4.50;;
49828;SDS011;35723;51.194;5.112;2023-02-01T16:54:20;24.17;;;3.83;;
49828;SDS011;35723;51.194;5.112;2023-02-01T16:56:46;21.90;;;4.20;;
49828;SDS011;35723;51.194;5.112;2023-02-01T16:59:11;32.83;;;4.68;;
49828;SDS011;35723;51.194;5.112;2023-02-01T17:01:39;27.67;;;4.22;;
49828;SDS011;35723;51.194;5.112;2023-02-01T17:04:06;22.73;;;4.30;;
49828;SDS011;35723;51.194;5.112;2023-02-01T17:06:32;31.10;;;4.57;;
49828;SDS011;35723;51.194;5.112;2023-02-01T17:09:01;27.05;;;4.30;;
49828;SDS011;35723;51.194;5.112;2023-02-01T17:11:28;24.75;;;4.50;;
49828;SDS011;35723;51.194;5.112;2023-02-01T17:13:55;24.90;;;4.13;;
49828;SDS011;35723;51.194;5.112;2023-02-01T17:16:28;32.72;;;5.28;;
49828;SDS011;35723;51.194;5.112;2023-02-01T17:18:59;25.00;;;4.10;;
49828;SDS011;35723;51.194;5.112;2023-02-01T17:21:29;29.40;;;4.85;;
49828;SDS011;35723;51.194;5.112;2023-02-01T17:24:00;29.93;;;4.47;;
49828;SDS011;35723;51.194;5.112;2023-02-01T17:26:26;32.08;;;5.35;;
49828;SDS011;35723;51.194;5.112;2023-02-01T17:28:52;27.40;;;4.60;;
49828;SDS011;35723;51.194;5.112;2023-02-01T17:31:17;37.17;;;5.25;;
49828;SDS011;35723;51.194;5.112;2023-02-01T17:33:43;31.83;;;4.50;;
49828;SDS011;35723;51.194;5.112;2023-02-01T17:36:11;29.63;;;4.70;;
49828;SDS011;35723;51.194;5.112;2023-02-01T17:38:39;26.90;;;4.40;;